createdAt,value
2018-12-14T00:00:43.867Z,1014.70
2018-12-14T00:01:43.869Z,1014.75
2018-12-14T00:02:43.878Z,1014.71
2018-12-14T00:03:43.889Z,1014.73
2018-12-14T00:04:43.883Z,1014.76
2018-12-14T00:05:43.901Z,1014.74
2018-12-14T00:06:43.895Z,1014.73
2018-12-14T00:07:43.915Z,1014.69
2018-12-14T00:08:43.899Z,1014.71
2018-12-14T00:09:43.904Z,1014.72
2018-12-14T00:10:43.915Z,1014.69
2018-12-14T00:11:45.668Z,1014.71
2018-12-14T00:12:43.928Z,1014.72
2018-12-14T00:13:43.923Z,1014.73
2018-12-14T00:14:43.931Z,1014.72
2018-12-14T00:15:43.937Z,1014.71
2018-12-14T00:16:43.938Z,1014.74
2018-12-14T00:17:43.939Z,1014.74
2018-12-14T00:18:43.950Z,1014.74
2018-12-14T00:19:43.956Z,1014.73
2018-12-14T00:20:43.959Z,1014.72
2018-12-14T00:21:43.963Z,1014.70
2018-12-14T00:22:43.966Z,1014.69
2018-12-14T00:23:43.991Z,1014.65
2018-12-14T00:24:43.974Z,1014.62
2018-12-14T00:25:43.990Z,1014.61
2018-12-14T00:26:43.980Z,1014.59
2018-12-14T00:27:43.988Z,1014.60
2018-12-14T00:28:43.992Z,1014.61
2018-12-14T00:29:43.996Z,1014.63
2018-12-14T00:30:44.001Z,1014.59
2018-12-14T00:31:44.010Z,1014.59
2018-12-14T00:32:44.016Z,1014.59
2018-12-14T00:33:44.011Z,1014.56
2018-12-14T00:34:44.015Z,1014.55
2018-12-14T00:35:44.022Z,1014.56
2018-12-14T00:36:44.028Z,1014.55
2018-12-14T00:37:44.031Z,1014.58
2018-12-14T00:38:44.036Z,1014.58
2018-12-14T00:39:44.044Z,1014.58
2018-12-14T00:40:44.048Z,1014.59
2018-12-14T00:41:44.051Z,1014.57
2018-12-14T00:42:44.058Z,1014.56
2018-12-14T00:43:44.055Z,1014.56
2018-12-14T00:44:44.063Z,1014.57
2018-12-14T00:45:44.065Z,1014.55
2018-12-14T00:46:44.073Z,1014.54
2018-12-14T00:47:44.068Z,1014.57
2018-12-14T00:48:44.078Z,1014.55
2018-12-14T00:49:44.090Z,1014.59
2018-12-14T00:50:44.085Z,1014.58
2018-12-14T00:51:44.091Z,1014.59
2018-12-14T00:52:44.098Z,1014.61
2018-12-14T00:53:44.104Z,1014.61
2018-12-14T00:54:44.100Z,1014.63
2018-12-14T00:55:44.113Z,1014.63
2018-12-14T00:56:44.111Z,1014.62
2018-12-14T00:57:44.125Z,1014.63
2018-12-14T00:58:44.122Z,1014.66
2018-12-14T00:59:44.131Z,1014.67
2018-12-14T01:00:44.128Z,1014.67
2018-12-14T01:01:44.134Z,1014.66
2018-12-14T01:02:44.149Z,1014.70
2018-12-14T01:03:44.159Z,1014.70
2018-12-14T01:04:44.145Z,1014.65
2018-12-14T01:05:44.145Z,1014.65
2018-12-14T01:06:44.155Z,1014.65
2018-12-14T01:07:44.157Z,1014.67
2018-12-14T01:08:44.165Z,1014.66
2018-12-14T01:09:44.171Z,1014.64
2018-12-14T01:10:44.167Z,1014.64
2018-12-14T01:11:44.180Z,1014.66
2018-12-14T01:12:44.184Z,1014.65
2018-12-14T01:13:44.184Z,1014.65
2018-12-14T01:14:44.184Z,1014.63
2018-12-14T01:15:44.197Z,1014.69
2018-12-14T01:16:44.199Z,1014.68
2018-12-14T01:17:44.201Z,1014.64
2018-12-14T01:18:44.206Z,1014.66
2018-12-14T01:19:44.201Z,1014.67
2018-12-14T01:20:44.205Z,1014.67
2018-12-14T01:21:44.213Z,1014.69
2018-12-14T01:22:44.224Z,1014.66
2018-12-14T01:23:44.224Z,1014.70
2018-12-14T01:24:44.231Z,1014.72
2018-12-14T01:25:44.233Z,1014.72
2018-12-14T01:26:44.233Z,1014.74
2018-12-14T01:27:44.237Z,1014.75
2018-12-14T01:28:44.244Z,1014.77
2018-12-14T01:29:44.253Z,1014.78
2018-12-14T01:30:44.247Z,1014.77
2018-12-14T01:31:44.263Z,1014.80
2018-12-14T01:32:44.263Z,1014.83
2018-12-14T01:33:44.269Z,1014.80
2018-12-14T01:34:44.269Z,1014.80
2018-12-14T01:35:44.275Z,1014.84
2018-12-14T01:36:44.300Z,1014.86
2018-12-14T01:37:44.284Z,1014.80
2018-12-14T01:38:44.293Z,1014.83
2018-12-14T01:39:44.291Z,1014.83
2018-12-14T01:40:44.306Z,1014.84
2018-12-14T01:41:44.297Z,1014.85
2018-12-14T01:42:44.303Z,1014.84
2018-12-14T01:43:44.315Z,1014.86
2018-12-14T01:44:44.317Z,1014.84
2018-12-14T01:45:44.328Z,1014.89
2018-12-14T01:46:44.325Z,1014.88
2018-12-14T01:47:44.325Z,1014.90
2018-12-14T01:48:44.335Z,1014.88
2018-12-14T01:49:44.343Z,1014.88
2018-12-14T01:50:44.339Z,1014.87
2018-12-14T01:51:44.343Z,1014.92
2018-12-14T01:52:44.343Z,1014.92
2018-12-14T01:53:44.353Z,1014.90
2018-12-14T01:54:44.353Z,1014.95
2018-12-14T01:55:44.362Z,1014.92
2018-12-14T01:56:44.361Z,1014.94
2018-12-14T01:57:44.363Z,1014.95
2018-12-14T01:58:44.371Z,1014.95
2018-12-14T01:59:44.373Z,1014.95
2018-12-14T02:00:44.391Z,1014.92
2018-12-14T02:01:44.382Z,1014.93
2018-12-14T02:02:44.387Z,1014.98
2018-12-14T02:03:44.390Z,1014.95
2018-12-14T02:04:44.400Z,1014.96
2018-12-14T02:05:44.403Z,1014.96
2018-12-14T02:06:44.405Z,1014.95
2018-12-14T02:07:44.410Z,1014.95
2018-12-14T02:08:44.413Z,1014.96
2018-12-14T02:09:44.421Z,1014.95
2018-12-14T02:10:44.419Z,1014.99
2018-12-14T02:11:44.429Z,1014.99
2018-12-14T02:12:44.427Z,1015.01
2018-12-14T02:13:44.433Z,1015.00
2018-12-14T02:14:44.461Z,1014.98
2018-12-14T02:15:44.433Z,1015.00
2018-12-14T02:16:44.449Z,1015.00
2018-12-14T02:17:44.446Z,1014.99
2018-12-14T02:18:44.453Z,1014.96
2018-12-14T02:19:44.465Z,1014.93
2018-12-14T02:20:44.470Z,1014.92
2018-12-14T02:21:44.466Z,1014.87
2018-12-14T02:22:44.478Z,1014.91
2018-12-14T02:23:44.475Z,1014.86
2018-12-14T02:24:44.483Z,1014.86
2018-12-14T02:25:44.486Z,1014.85
2018-12-14T02:26:44.490Z,1014.86
2018-12-14T02:27:44.517Z,1014.86
2018-12-14T02:28:44.493Z,1014.88
2018-12-14T02:29:44.505Z,1014.89
2018-12-14T02:30:44.504Z,1014.91
2018-12-14T02:31:44.513Z,1014.88
2018-12-14T02:32:44.517Z,1014.86
2018-12-14T02:33:44.515Z,1014.82
2018-12-14T02:34:44.507Z,1014.83
2018-12-14T02:35:44.523Z,1014.82
2018-12-14T02:36:44.532Z,1014.82
2018-12-14T02:37:44.536Z,1014.76
2018-12-14T02:38:44.537Z,1014.79
2018-12-14T02:39:44.544Z,1014.81
2018-12-14T02:40:44.556Z,1014.82
2018-12-14T02:41:44.547Z,1014.78
2018-12-14T02:42:44.558Z,1014.81
2018-12-14T02:43:44.553Z,1014.79
2018-12-14T02:44:44.563Z,1014.76
2018-12-14T02:45:44.562Z,1014.75
2018-12-14T02:46:44.569Z,1014.75
2018-12-14T02:47:44.575Z,1014.75
2018-12-14T02:48:44.581Z,1014.72
2018-12-14T02:49:44.593Z,1014.76
2018-12-14T02:50:44.603Z,1014.73
2018-12-14T02:51:44.590Z,1014.72
2018-12-14T02:52:44.598Z,1014.74
2018-12-14T02:53:44.600Z,1014.71
2018-12-14T02:54:44.599Z,1014.73
2018-12-14T02:55:44.605Z,1014.72
2018-12-14T02:56:44.614Z,1014.73
2018-12-14T02:57:44.612Z,1014.72
2018-12-14T02:58:44.617Z,1014.71
2018-12-14T02:59:44.625Z,1014.73
2018-12-14T03:00:44.625Z,1014.72
2018-12-14T03:01:44.630Z,1014.71
2018-12-14T03:02:44.643Z,1014.72
2018-12-14T03:03:44.641Z,1014.73
2018-12-14T03:04:44.645Z,1014.71
2018-12-14T03:05:44.654Z,1014.69
2018-12-14T03:06:44.654Z,1014.69
2018-12-14T03:07:44.654Z,1014.69
2018-12-14T03:08:44.663Z,1014.69
2018-12-14T03:09:44.663Z,1014.69
2018-12-14T03:10:44.670Z,1014.71
2018-12-14T03:11:44.674Z,1014.71
2018-12-14T03:12:44.670Z,1014.67
2018-12-14T03:13:44.679Z,1014.68
2018-12-14T03:14:44.682Z,1014.70
2018-12-14T03:15:44.689Z,1014.70
2018-12-14T03:16:44.691Z,1014.70
2018-12-14T03:17:44.693Z,1014.71
2018-12-14T03:18:44.706Z,1014.72
2018-12-14T03:19:44.702Z,1014.68
2018-12-14T03:20:44.712Z,1014.73
2018-12-14T03:21:44.714Z,1014.72
2018-12-14T03:22:44.739Z,1014.74
2018-12-14T03:23:44.722Z,1014.79
2018-12-14T03:24:44.726Z,1014.74
2018-12-14T03:25:44.735Z,1014.73
2018-12-14T03:26:44.734Z,1014.75
2018-12-14T03:27:44.737Z,1014.75
2018-12-14T03:28:44.756Z,1014.78
2018-12-14T03:29:44.747Z,1014.76
2018-12-14T03:30:44.748Z,1014.78
2018-12-14T03:31:44.771Z,1014.80
2018-12-14T03:32:44.788Z,1014.78
2018-12-14T03:33:44.765Z,1014.78
2018-12-14T03:34:44.767Z,1014.74
2018-12-14T03:35:44.769Z,1014.78
2018-12-14T03:36:44.779Z,1014.73
2018-12-14T03:37:44.799Z,1014.75
2018-12-14T03:38:44.786Z,1014.76
2018-12-14T03:39:44.792Z,1014.72
2018-12-14T03:40:44.801Z,1014.71
2018-12-14T03:41:44.796Z,1014.74
2018-12-14T03:42:44.816Z,1014.71
2018-12-14T03:43:44.813Z,1014.73
2018-12-14T03:44:44.815Z,1014.72
2018-12-14T03:45:44.819Z,1014.74
2018-12-14T03:46:44.827Z,1014.68
2018-12-14T03:47:44.816Z,1014.72
2018-12-14T03:48:44.851Z,1014.65
2018-12-14T03:49:44.834Z,1014.63
2018-12-14T03:50:44.849Z,1014.66
2018-12-14T03:51:44.840Z,1014.63
2018-12-14T03:52:44.845Z,1014.61
2018-12-14T03:53:44.845Z,1014.60
2018-12-14T03:54:44.857Z,1014.60
2018-12-14T03:55:44.851Z,1014.60
2018-12-14T03:56:44.857Z,1014.66
2018-12-14T03:57:44.864Z,1014.64
2018-12-14T03:58:44.874Z,1014.62
2018-12-14T03:59:44.870Z,1014.65
2018-12-14T04:00:44.870Z,1014.63
2018-12-14T04:01:44.882Z,1014.66
2018-12-14T04:02:44.883Z,1014.64
2018-12-14T04:03:44.891Z,1014.66
2018-12-14T04:04:44.890Z,1014.66
2018-12-14T04:05:44.908Z,1014.61
2018-12-14T04:06:44.900Z,1014.60
2018-12-14T04:07:44.900Z,1014.61
2018-12-14T04:08:44.911Z,1014.64
2018-12-14T04:09:44.917Z,1014.64
2018-12-14T04:10:44.919Z,1014.65
2018-12-14T04:11:44.922Z,1014.67
2018-12-14T04:12:44.926Z,1014.65
2018-12-14T04:13:44.930Z,1014.69
2018-12-14T04:14:44.930Z,1014.72
2018-12-14T04:15:44.946Z,1014.69
2018-12-14T04:16:44.937Z,1014.75
2018-12-14T04:17:44.943Z,1014.76
2018-12-14T04:18:44.966Z,1014.77
2018-12-14T04:19:44.954Z,1014.76
2018-12-14T04:20:44.959Z,1014.77
2018-12-14T04:21:44.963Z,1014.78
2018-12-14T04:22:44.967Z,1014.79
2018-12-14T04:23:44.971Z,1014.82
2018-12-14T04:24:44.976Z,1014.82
2018-12-14T04:25:44.976Z,1014.82
2018-12-14T04:26:44.982Z,1014.81
2018-12-14T04:27:44.986Z,1014.82
2018-12-14T04:28:44.992Z,1014.79
2018-12-14T04:29:44.995Z,1014.78
2018-12-14T04:30:44.996Z,1014.79
2018-12-14T04:31:45.004Z,1014.79
2018-12-14T04:32:45.013Z,1014.77
2018-12-14T04:33:45.012Z,1014.78
2018-12-14T04:34:45.012Z,1014.79
2018-12-14T04:35:45.014Z,1014.79
2018-12-14T04:36:45.020Z,1014.75
2018-12-14T04:37:45.026Z,1014.79
2018-12-14T04:38:45.034Z,1014.80
2018-12-14T04:39:45.034Z,1014.84
2018-12-14T04:40:45.045Z,1014.84
2018-12-14T04:41:45.039Z,1014.84
2018-12-14T04:42:48.809Z,1014.86
2018-12-14T04:43:45.048Z,1014.86
2018-12-14T04:44:45.050Z,1014.84
2018-12-14T04:45:45.056Z,1014.87
2018-12-14T04:46:45.062Z,1014.88
2018-12-14T04:47:45.066Z,1014.89
2018-12-14T04:48:45.070Z,1014.88
2018-12-14T04:49:45.078Z,1014.86
2018-12-14T04:50:45.078Z,1014.83
2018-12-14T04:51:45.079Z,1014.82
2018-12-14T04:52:45.095Z,1014.79
2018-12-14T04:53:45.084Z,1014.80
2018-12-14T04:54:45.096Z,1014.78
2018-12-14T04:55:45.103Z,1014.79
2018-12-14T04:56:45.106Z,1014.85
2018-12-14T04:57:45.107Z,1014.82
2018-12-14T04:58:45.111Z,1014.88
2018-12-14T04:59:45.129Z,1014.87
2018-12-14T05:00:45.113Z,1014.90
2018-12-14T05:01:45.125Z,1014.90
2018-12-14T05:02:45.129Z,1014.87
2018-12-14T05:03:45.133Z,1014.88
2018-12-14T05:04:45.135Z,1014.86
2018-12-14T05:05:45.137Z,1014.89
2018-12-14T05:06:45.139Z,1014.88
2018-12-14T05:07:45.137Z,1014.87
2018-12-14T05:08:45.148Z,1014.90
2018-12-14T05:09:45.159Z,1014.91
2018-12-14T05:10:45.153Z,1014.91
2018-12-14T05:11:45.159Z,1014.92
2018-12-14T05:12:45.166Z,1014.92
2018-12-14T05:13:45.170Z,1014.89
2018-12-14T05:14:45.175Z,1014.90
2018-12-14T05:15:45.171Z,1014.91
2018-12-14T05:16:45.414Z,1014.91
2018-12-14T05:17:45.240Z,1014.93
2018-12-14T05:18:45.192Z,1014.94
2018-12-14T05:19:45.189Z,1014.95
2018-12-14T05:20:45.195Z,1014.94
2018-12-14T05:21:45.197Z,1014.93
2018-12-14T05:22:45.211Z,1014.96
2018-12-14T05:23:45.215Z,1014.97
2018-12-14T05:24:45.217Z,1014.98
2018-12-14T05:25:45.215Z,1014.97
2018-12-14T05:26:45.219Z,1014.99
2018-12-14T05:27:45.224Z,1015.01
2018-12-14T05:28:45.217Z,1015.01
2018-12-14T05:29:45.231Z,1015.02
2018-12-14T05:30:45.235Z,1014.99
2018-12-14T05:31:45.245Z,1015.02
2018-12-14T05:32:45.249Z,1015.03
2018-12-14T05:33:45.246Z,1015.02
2018-12-14T05:34:45.257Z,1014.97
2018-12-14T05:35:45.255Z,1015.00
2018-12-14T05:36:45.265Z,1015.04
2018-12-14T05:37:45.265Z,1015.03
2018-12-14T05:38:45.277Z,1015.01
2018-12-14T05:39:45.275Z,1015.02
2018-12-14T05:40:45.276Z,1015.03
2018-12-14T05:41:45.283Z,1014.99
2018-12-14T05:42:45.289Z,1014.98
2018-12-14T05:43:45.285Z,1014.99
2018-12-14T05:44:45.295Z,1015.03
2018-12-14T05:45:45.300Z,1015.02
2018-12-14T05:46:45.302Z,1015.02
2018-12-14T05:47:45.303Z,1014.99
2018-12-14T05:48:45.326Z,1015.00
2018-12-14T05:49:45.311Z,1014.99
2018-12-14T05:50:45.313Z,1015.01
2018-12-14T05:51:45.317Z,1015.02
2018-12-14T05:52:45.331Z,1014.97
2018-12-14T05:53:45.329Z,1014.99
2018-12-14T05:54:45.329Z,1014.98
2018-12-14T05:55:45.339Z,1014.92
2018-12-14T05:56:45.339Z,1014.88
2018-12-14T05:57:45.349Z,1014.90
2018-12-14T05:58:45.355Z,1014.92
2018-12-14T05:59:45.359Z,1014.92
2018-12-14T06:00:45.357Z,1014.90
2018-12-14T06:01:45.361Z,1014.91
2018-12-14T06:02:45.366Z,1014.90
2018-12-14T06:03:45.369Z,1014.93
2018-12-14T06:04:45.370Z,1014.91
2018-12-14T06:05:45.385Z,1014.93
2018-12-14T06:06:45.377Z,1014.94
2018-12-14T06:07:45.390Z,1014.94
2018-12-14T06:08:45.395Z,1014.96
2018-12-14T06:09:45.391Z,1014.95
2018-12-14T06:10:45.395Z,1014.96
2018-12-14T06:11:45.404Z,1014.98
2018-12-14T06:12:45.399Z,1015.00
2018-12-14T06:13:45.413Z,1015.02
2018-12-14T06:14:45.412Z,1015.01
2018-12-14T06:15:45.415Z,1015.02
2018-12-14T06:16:45.426Z,1015.03
2018-12-14T06:17:45.427Z,1015.04
2018-12-14T06:18:45.427Z,1015.05
2018-12-14T06:19:45.433Z,1015.07
2018-12-14T06:20:45.435Z,1015.08
2018-12-14T06:21:45.440Z,1015.10
2018-12-14T06:22:45.445Z,1015.08
2018-12-14T06:23:45.457Z,1015.10
2018-12-14T06:24:45.443Z,1015.14
2018-12-14T06:25:45.459Z,1015.15
2018-12-14T06:26:45.459Z,1015.12
2018-12-14T06:27:45.456Z,1015.12
2018-12-14T06:28:45.459Z,1015.13
2018-12-14T06:29:45.472Z,1015.14
2018-12-14T06:30:45.475Z,1015.15
2018-12-14T06:31:45.481Z,1015.14
2018-12-14T06:32:45.494Z,1015.17
2018-12-14T06:33:45.489Z,1015.15
2018-12-14T06:34:46.069Z,1015.17
2018-12-14T06:35:45.497Z,1015.14
2018-12-14T06:36:45.515Z,1015.22
2018-12-14T06:37:45.508Z,1015.22
2018-12-14T06:38:45.565Z,1015.19
2018-12-14T06:39:45.515Z,1015.25
2018-12-14T06:40:45.525Z,1015.23
2018-12-14T06:41:45.531Z,1015.22
2018-12-14T06:42:45.641Z,1015.21
2018-12-14T06:43:45.525Z,1015.23
2018-12-14T06:44:45.685Z,1015.23
2018-12-14T06:45:45.533Z,1015.25
2018-12-14T06:46:45.543Z,1015.27
2018-12-14T06:47:45.543Z,1015.30
2018-12-14T06:48:45.543Z,1015.28
2018-12-14T06:49:45.550Z,1015.30
2018-12-14T06:50:45.558Z,1015.34
2018-12-14T06:51:45.558Z,1015.32
2018-12-14T06:52:45.566Z,1015.33
2018-12-14T06:53:45.565Z,1015.31
2018-12-14T06:54:45.651Z,1015.34
2018-12-14T06:55:45.581Z,1015.33
2018-12-14T06:56:45.597Z,1015.36
2018-12-14T06:57:45.581Z,1015.34
2018-12-14T06:58:45.594Z,1015.38
2018-12-14T06:59:45.591Z,1015.41
2018-12-14T07:00:45.628Z,1015.40
2018-12-14T07:01:45.593Z,1015.41
2018-12-14T07:02:45.630Z,1015.44
2018-12-14T07:03:45.605Z,1015.49
2018-12-14T07:04:46.579Z,1015.50
2018-12-14T07:05:45.616Z,1015.49
2018-12-14T07:06:45.623Z,1015.50
2018-12-14T07:07:45.622Z,1015.50
2018-12-14T07:08:45.634Z,1015.49
2018-12-14T07:09:45.636Z,1015.48
2018-12-14T07:10:45.652Z,1015.49
2018-12-14T07:11:45.637Z,1015.50
2018-12-14T07:12:45.634Z,1015.53
2018-12-14T07:13:45.696Z,1015.53
2018-12-14T07:14:45.649Z,1015.53
2018-12-14T07:15:45.647Z,1015.54
2018-12-14T07:16:45.657Z,1015.57
2018-12-14T07:17:45.658Z,1015.60
2018-12-14T07:18:46.583Z,1015.60
2018-12-14T07:19:45.668Z,1015.64
2018-12-14T07:20:45.724Z,1015.61
2018-12-14T07:21:45.705Z,1015.61
2018-12-14T07:22:45.690Z,1015.58
2018-12-14T07:23:45.686Z,1015.64
2018-12-14T07:24:45.702Z,1015.62
2018-12-14T07:25:45.693Z,1015.62
2018-12-14T07:26:45.704Z,1015.65
2018-12-14T07:27:45.702Z,1015.64
2018-12-14T07:28:45.710Z,1015.63
2018-12-14T07:29:45.703Z,1015.63
2018-12-14T07:30:45.710Z,1015.68
2018-12-14T07:31:45.714Z,1015.68
2018-12-14T07:32:45.720Z,1015.71
2018-12-14T07:33:45.722Z,1015.72
2018-12-14T07:34:45.728Z,1015.72
2018-12-14T07:35:45.732Z,1015.73
2018-12-14T07:36:45.735Z,1015.73
2018-12-14T07:37:45.741Z,1015.74
2018-12-14T07:38:48.263Z,1015.80
2018-12-14T07:39:45.754Z,1015.83
2018-12-14T07:40:45.750Z,1015.85
2018-12-14T07:41:45.764Z,1015.86
2018-12-14T07:42:45.760Z,1015.87
2018-12-14T07:43:45.764Z,1015.89
2018-12-14T07:44:45.874Z,1015.87
2018-12-14T07:45:45.771Z,1015.88
2018-12-14T07:46:45.778Z,1015.91
2018-12-14T07:47:45.783Z,1015.91
2018-12-14T07:48:45.783Z,1015.92
2018-12-14T07:49:45.786Z,1015.92
2018-12-14T07:50:45.862Z,1015.94
2018-12-14T07:51:45.794Z,1015.96
2018-12-14T07:52:45.801Z,1015.99
2018-12-14T07:53:45.818Z,1016.00
2018-12-14T07:54:45.814Z,1016.03
2018-12-14T07:55:45.811Z,1016.00
2018-12-14T07:56:45.815Z,1016.03
2018-12-14T07:57:45.815Z,1016.02
2018-12-14T07:58:45.827Z,1016.03
2018-12-14T07:59:46.597Z,1016.04
2018-12-14T08:00:45.833Z,1016.06
2018-12-14T08:01:45.837Z,1016.10
2018-12-14T08:02:45.837Z,1016.11
2018-12-14T08:03:45.843Z,1016.15
2018-12-14T08:04:45.865Z,1016.19
2018-12-14T08:05:45.849Z,1016.13
2018-12-14T08:06:45.856Z,1016.14
2018-12-14T08:07:45.858Z,1016.11
2018-12-14T08:08:45.866Z,1016.13
2018-12-14T08:09:45.872Z,1016.10
2018-12-14T08:10:45.874Z,1016.09
2018-12-14T08:11:45.875Z,1016.11
2018-12-14T08:12:45.881Z,1016.15
2018-12-14T08:13:45.883Z,1016.16
2018-12-14T08:14:45.885Z,1016.16
2018-12-14T08:15:45.895Z,1016.15
2018-12-14T08:16:45.899Z,1016.20
2018-12-14T08:17:45.964Z,1016.16
2018-12-14T08:18:45.901Z,1016.19
2018-12-14T08:19:45.908Z,1016.19
2018-12-14T08:20:45.911Z,1016.20
2018-12-14T08:21:45.915Z,1016.26
2018-12-14T08:22:45.924Z,1016.26
2018-12-14T08:23:45.917Z,1016.25
2018-12-14T08:24:45.931Z,1016.25
2018-12-14T08:25:45.929Z,1016.25
2018-12-14T08:26:45.938Z,1016.24
2018-12-14T08:27:45.943Z,1016.27
2018-12-14T08:28:45.938Z,1016.23
2018-12-14T08:29:45.947Z,1016.27
2018-12-14T08:30:45.947Z,1016.26
2018-12-14T08:31:45.954Z,1016.29
2018-12-14T08:32:45.960Z,1016.30
2018-12-14T08:33:45.964Z,1016.29
2018-12-14T08:34:51.014Z,1016.31
2018-12-14T08:35:45.969Z,1016.32
2018-12-14T08:36:45.975Z,1016.33
2018-12-14T08:37:45.978Z,1016.31
2018-12-14T08:38:45.978Z,1016.34
2018-12-14T08:39:45.984Z,1016.35
2018-12-14T08:40:45.995Z,1016.37
2018-12-14T08:41:45.993Z,1016.38
2018-12-14T08:42:45.999Z,1016.38
2018-12-14T08:43:46.005Z,1016.38
2018-12-14T08:44:46.007Z,1016.37
2018-12-14T08:45:46.006Z,1016.34
2018-12-14T08:46:46.013Z,1016.34
2018-12-14T08:47:46.017Z,1016.36
2018-12-14T08:48:46.015Z,1016.42
2018-12-14T08:49:46.030Z,1016.42
2018-12-14T08:50:46.027Z,1016.45
2018-12-14T08:51:46.033Z,1016.46
2018-12-14T08:52:46.034Z,1016.48
2018-12-14T08:53:46.042Z,1016.49
2018-12-14T08:54:46.043Z,1016.51
2018-12-14T08:55:46.045Z,1016.52
2018-12-14T08:56:46.051Z,1016.50
2018-12-14T08:57:46.055Z,1016.52
2018-12-14T08:58:46.063Z,1016.54
2018-12-14T08:59:46.059Z,1016.55
2018-12-14T09:00:46.072Z,1016.52
2018-12-14T09:01:46.067Z,1016.56
2018-12-14T09:02:46.069Z,1016.54
2018-12-14T09:03:46.072Z,1016.55
2018-12-14T09:04:46.084Z,1016.59
2018-12-14T09:05:46.080Z,1016.64
2018-12-14T09:06:46.086Z,1016.63
2018-12-14T09:07:46.087Z,1016.60
2018-12-14T09:08:46.091Z,1016.66
2018-12-14T09:09:46.093Z,1016.66
2018-12-14T09:10:46.098Z,1016.68
2018-12-14T09:11:46.106Z,1016.62
2018-12-14T09:12:46.116Z,1016.66
2018-12-14T09:13:47.967Z,1016.70
2018-12-14T09:14:46.895Z,1016.70
2018-12-14T09:15:46.119Z,1016.71
2018-12-14T09:16:46.125Z,1016.73
2018-12-14T09:17:46.123Z,1016.74
2018-12-14T09:18:46.128Z,1016.75
2018-12-14T09:19:46.134Z,1016.74
2018-12-14T09:20:46.135Z,1016.74
2018-12-14T09:21:46.148Z,1016.76
2018-12-14T09:22:46.146Z,1016.77
2018-12-14T09:23:46.155Z,1016.77
2018-12-14T09:24:46.158Z,1016.77
2018-12-14T09:25:46.154Z,1016.76
2018-12-14T09:26:46.166Z,1016.75
2018-12-14T09:27:46.163Z,1016.80
2018-12-14T09:28:46.176Z,1016.80
2018-12-14T09:29:46.175Z,1016.82
2018-12-14T09:30:46.191Z,1016.83
2018-12-14T09:31:46.186Z,1016.84
2018-12-14T09:32:46.188Z,1016.83
2018-12-14T09:33:46.194Z,1016.88
2018-12-14T09:34:46.188Z,1016.86
2018-12-14T09:35:46.199Z,1016.89
2018-12-14T09:36:46.213Z,1016.89
2018-12-14T09:37:46.210Z,1016.89
2018-12-14T09:38:46.217Z,1016.93
2018-12-14T09:39:46.228Z,1016.94
2018-12-14T09:40:46.229Z,1016.97
2018-12-14T09:41:46.229Z,1016.97
2018-12-14T09:42:46.233Z,1016.95
2018-12-14T09:43:46.235Z,1016.98
2018-12-14T09:44:46.251Z,1016.98
2018-12-14T09:45:46.234Z,1016.96
2018-12-14T09:46:47.136Z,1016.96
2018-12-14T09:47:46.248Z,1016.97
2018-12-14T09:48:46.257Z,1016.96
2018-12-14T09:49:46.281Z,1016.98
2018-12-14T09:50:46.273Z,1016.91
2018-12-14T09:51:46.283Z,1016.96
2018-12-14T09:52:47.139Z,1016.97
2018-12-14T09:53:46.395Z,1016.96
2018-12-14T09:54:46.295Z,1016.97
2018-12-14T09:55:46.406Z,1016.97
2018-12-14T09:56:46.299Z,1016.97
2018-12-14T09:57:46.312Z,1016.94
2018-12-14T09:58:46.310Z,1016.94
2018-12-14T09:59:46.310Z,1016.90
2018-12-14T10:00:46.328Z,1016.91
2018-12-14T10:01:46.495Z,1016.91
2018-12-14T10:02:46.323Z,1016.89
2018-12-14T10:03:46.335Z,1016.91
2018-12-14T10:04:46.354Z,1016.92
2018-12-14T10:05:46.334Z,1016.90
2018-12-14T10:06:46.343Z,1016.89
2018-12-14T10:07:47.051Z,1016.89
2018-12-14T10:08:46.353Z,1016.86
2018-12-14T10:09:46.363Z,1016.86
2018-12-14T10:10:46.364Z,1016.87
2018-12-14T10:11:46.380Z,1016.88
2018-12-14T10:12:46.374Z,1016.87
2018-12-14T10:13:46.380Z,1016.86
2018-12-14T10:14:46.384Z,1016.86
2018-12-14T10:15:46.394Z,1016.87
2018-12-14T10:16:46.392Z,1016.84
2018-12-14T10:17:46.396Z,1016.87
2018-12-14T10:18:46.406Z,1016.88
2018-12-14T10:19:46.417Z,1016.91
2018-12-14T10:20:46.408Z,1016.92
2018-12-14T10:21:46.412Z,1016.85
2018-12-14T10:22:46.416Z,1016.90
2018-12-14T10:23:46.429Z,1016.86
2018-12-14T10:24:46.428Z,1016.89
2018-12-14T10:25:46.473Z,1016.72
2018-12-14T10:26:46.434Z,1016.86
2018-12-14T10:27:46.438Z,1016.84
2018-12-14T10:28:46.438Z,1016.89
2018-12-14T10:29:46.448Z,1016.81
2018-12-14T10:30:46.446Z,1016.79
2018-12-14T10:31:46.462Z,1016.80
2018-12-14T10:32:46.462Z,1016.79
2018-12-14T10:33:46.502Z,1016.72
2018-12-14T10:34:46.456Z,1016.76
2018-12-14T10:35:46.486Z,1016.72
2018-12-14T10:36:46.474Z,1016.73
2018-12-14T10:37:46.484Z,1016.74
2018-12-14T10:38:46.488Z,1016.71
2018-12-14T10:39:46.494Z,1016.72
2018-12-14T10:40:46.495Z,1016.75
2018-12-14T10:41:46.492Z,1016.71
2018-12-14T10:42:46.503Z,1016.72
2018-12-14T10:43:46.506Z,1016.70
2018-12-14T10:44:46.510Z,1016.73
2018-12-14T10:45:46.514Z,1016.66
2018-12-14T10:46:46.516Z,1016.65
2018-12-14T10:47:46.522Z,1016.65
2018-12-14T10:48:46.532Z,1016.63
2018-12-14T10:49:46.530Z,1016.61
2018-12-14T10:50:46.524Z,1016.59
2018-12-14T10:53:18.242Z,1016.57
2018-12-14T10:54:18.211Z,1016.56
2018-12-14T10:56:11.154Z,1016.61
2018-12-14T10:57:16.179Z,1016.62
2018-12-14T10:59:04.124Z,1016.61
2018-12-14T11:00:05.016Z,1016.60
2018-12-14T11:01:57.161Z,1016.59
2018-12-14T11:02:57.970Z,1016.61
2018-12-14T11:04:51.612Z,1016.58
2018-12-14T11:05:50.069Z,1016.55
2018-12-14T11:07:43.030Z,1016.59
2018-12-14T11:08:43.017Z,1016.58
2018-12-14T11:10:35.971Z,1016.58
2018-12-14T11:11:35.975Z,1016.57
2018-12-14T11:13:28.966Z,1016.54
2018-12-14T11:14:28.906Z,1016.55
2018-12-14T11:16:22.436Z,1016.55
2018-12-14T11:17:22.055Z,1016.51
2018-12-14T11:19:16.001Z,1016.50
2018-12-14T11:20:15.120Z,1016.48
2018-12-14T12:01:38.957Z,1016.38
2018-12-14T12:02:43.120Z,1016.36
2018-12-14T12:04:31.891Z,1016.35
2018-12-14T12:05:31.879Z,1016.34
2018-12-14T12:07:24.833Z,1016.36
2018-12-14T12:08:24.820Z,1016.36
2018-12-14T12:10:17.767Z,1016.34
2018-12-14T12:11:17.758Z,1016.32
2018-12-14T12:13:10.701Z,1016.32
2018-12-14T12:14:10.693Z,1016.33
2018-12-14T12:16:03.655Z,1016.43
2018-12-14T12:17:03.643Z,1016.38
2018-12-14T12:18:56.573Z,1016.38
2018-12-14T12:19:56.559Z,1016.39
2018-12-14T12:21:49.501Z,1016.30
2018-12-14T12:22:49.482Z,1016.35
2018-12-14T12:24:42.443Z,1016.36
2018-12-14T12:25:42.439Z,1016.37
2018-12-14T12:27:35.399Z,1016.44
2018-12-14T12:28:35.379Z,1016.43
2018-12-14T12:30:28.365Z,1016.42
2018-12-14T12:31:28.333Z,1016.40
2018-12-14T12:33:21.265Z,1016.42
2018-12-14T12:34:21.239Z,1016.41
2018-12-14T12:36:14.187Z,1016.36
2018-12-14T12:37:14.180Z,1016.35
2018-12-14T12:39:07.149Z,1016.37
2018-12-14T12:40:07.134Z,1016.37
2018-12-14T12:42:00.063Z,1016.35
2018-12-14T12:43:00.047Z,1016.35
2018-12-14T12:44:53.047Z,1016.39
2018-12-14T12:45:52.989Z,1016.37
2018-12-14T12:47:45.943Z,1016.34
2018-12-14T12:48:45.942Z,1016.37
2018-12-14T12:50:39.047Z,1016.37
2018-12-14T12:51:39.035Z,1016.37
2018-12-14T12:53:32.512Z,1016.41
2018-12-14T12:54:31.977Z,1016.39
2018-12-14T12:56:24.903Z,1016.42
2018-12-14T12:57:24.891Z,1016.41
2018-12-14T12:59:17.833Z,1016.41
2018-12-14T13:00:17.813Z,1016.42
2018-12-14T13:02:10.762Z,1016.39
2018-12-14T13:03:10.749Z,1016.41
2018-12-14T13:05:03.714Z,1016.40
2018-12-14T13:06:03.679Z,1016.41
2018-12-14T13:07:56.625Z,1016.38
2018-12-14T13:08:56.605Z,1016.43
2018-12-14T13:10:49.551Z,1016.42
2018-12-14T13:11:49.529Z,1016.42
2018-12-14T13:13:42.513Z,1016.45
2018-12-14T13:14:42.467Z,1016.44
2018-12-14T13:16:35.420Z,1016.48
2018-12-14T13:17:35.399Z,1016.44
2018-12-14T13:19:28.326Z,1016.48